sensor_id;sensor_type;location;lat;lon;timestamp;pressure;altitude;pressure_sealevel;temperature;humidity
20612;BME280;10465;42.686;23.364;2023-01-28T00:00:05;94333.25;;;2.96;80.01
20612;BME280;10465;42.686;23.364;2023-01-28T00:02:32;94295.75;;;2.62;79.90
20612;BME280;10465;42.686;23.364;2023-01-28T00:04:58;94331.19;;;2.88;79.49
20612;BME280;10465;42.686;23.364;2023-01-28T00:07:23;94338.53;;;2.81;79.64
20612;BME280;10465;42.686;23.364;2023-01-28T00:09:49;94323.44;;;2.68;79.22
20612;BME280;10465;42.686;23.364;2023-01-28T00:12:14;94328.66;;;2.68;79.72
20612;BME280;10465;42.686;23.364;2023-01-28T00:14:40;94354.97;;;2.87;79.16
20612;BME280;10465;42.686;23.364;2023-01-28T00:17:05;94345.34;;;2.77;79.39
20612;BME280;10465;42.686;23.364;2023-01-28T00:19:30;94358.13;;;2.84;79.58
20612;BME280;10465;42.686;23.364;2023-01-28T00:21:56;94368.28;;;2.90;80.11
20612;BME280;10465;42.686;23.364;2023-01-28T00:24:21;94362.28;;;2.90;79.86
20612;BME280;10465;42.686;23.364;2023-01-28T00:26:47;94366.19;;;2.92;79.03
20612;BME280;10465;42.686;23.364;2023-01-28T00:29:13;94361.00;;;2.82;78.51
20612;BME280;10465;42.686;23.364;2023-01-28T00:31:38;94315.13;;;2.56;78.60
20612;BME280;10465;42.686;23.364;2023-01-28T00:34:05;94372.22;;;2.93;78.71
20612;BME280;10465;42.686;23.364;2023-01-28T00:36:30;94371.94;;;2.94;77.99
20612;BME280;10465;42.686;23.364;2023-01-28T00:38:57;94372.72;;;2.95;78.24
20612;BME280;10465;42.686;23.364;2023-01-28T00:41:25;94375.06;;;2.96;78.17
20612;BME280;10465;42.686;23.364;2023-01-28T00:43:52;94376.91;;;2.96;78.31
20612;BME280;10465;42.686;23.364;2023-01-28T00:46:18;94378.75;;;2.90;78.08
20612;BME280;10465;42.686;23.364;2023-01-28T00:48:45;94362.56;;;2.83;78.59
20612;BME280;10465;42.686;23.364;2023-01-28T00:51:13;94387.88;;;2.98;78.31
20612;BME280;10465;42.686;23.364;2023-01-28T00:53:38;94337.31;;;2.63;77.64
20612;BME280;10465;42.686;23.364;2023-01-28T00:56:06;94381.09;;;2.92;77.59
20612;BME280;10465;42.686;23.364;2023-01-28T00:58:32;94379.28;;;2.92;77.68
20612;BME280;10465;42.686;23.364;2023-01-28T01:01:13;94329.53;;;2.48;77.88
20612;BME280;10465;42.686;23.364;2023-01-28T01:03:39;94357.88;;;2.75;77.99
20612;BME280;10465;42.686;23.364;2023-01-28T01:06:05;94386.34;;;2.92;78.38
20612;BME280;10465;42.686;23.364;2023-01-28T01:08:31;94357.88;;;2.75;78.01
20612;BME280;10465;42.686;23.364;2023-01-28T01:11:02;94384.22;;;2.94;78.48
20612;BME280;10465;42.686;23.364;2023-01-28T01:13:29;94381.59;;;2.94;78.15
20612;BME280;10465;42.686;23.364;2023-01-28T01:16:12;94383.69;;;2.97;78.12
20612;BME280;10465;42.686;23.364;2023-01-28T01:18:38;94369.38;;;2.79;78.33
20612;BME280;10465;42.686;23.364;2023-01-28T01:21:14;94357.88;;;2.75;78.53
20612;BME280;10465;42.686;23.364;2023-01-28T01:23:41;94388.94;;;2.97;78.38
20612;BME280;10465;42.686;23.364;2023-01-28T01:26:07;94382.41;;;2.89;78.15
20612;BME280;10465;42.686;23.364;2023-01-28T01:28:33;94382.38;;;2.94;78.58
20612;BME280;10465;42.686;23.364;2023-01-28T01:31:04;94391.00;;;3.00;78.29
20612;BME280;10465;42.686;23.364;2023-01-28T01:33:30;94387.88;;;2.98;78.08
20612;BME280;10465;42.686;23.364;2023-01-28T01:35:56;94362.06;;;2.81;78.00
20612;BME280;10465;42.686;23.364;2023-01-28T01:38:22;94373.56;;;2.80;78.41
20612;BME280;10465;42.686;23.364;2023-01-28T01:40:48;94384.50;;;2.87;78.32
20612;BME280;10465;42.686;23.364;2023-01-28T01:43:19;94380.84;;;2.88;77.83
20612;BME280;10465;42.686;23.364;2023-01-28T01:45:49;94372.25;;;2.83;77.88
20612;BME280;10465;42.686;23.364;2023-01-28T01:48:23;94379.81;;;2.89;78.67
20612;BME280;10465;42.686;23.364;2023-01-28T01:50:52;94395.22;;;2.96;78.34
20612;BME280;10465;42.686;23.364;2023-01-28T01:53:21;94398.06;;;2.94;78.53
20612;BME280;10465;42.686;23.364;2023-01-28T01:55:51;94387.63;;;2.94;78.26
20612;BME280;10465;42.686;23.364;2023-01-28T01:58:21;94391.56;;;2.87;78.47
20612;BME280;10465;42.686;23.364;2023-01-28T02:00:47;94374.38;;;2.76;78.54
20612;BME280;10465;42.686;23.364;2023-01-28T02:03:13;94399.41;;;2.87;78.89
20612;BME280;10465;42.686;23.364;2023-01-28T02:05:40;94361.88;;;2.57;78.57
20612;BME280;10465;42.686;23.364;2023-01-28T02:08:06;94402.03;;;2.87;78.75
20612;BME280;10465;42.686;23.364;2023-01-28T02:10:52;94362.94;;;2.56;79.02
20612;BME280;10465;42.686;23.364;2023-01-28T02:13:21;94373.38;;;2.61;78.54
20612;BME280;10465;42.686;23.364;2023-01-28T02:15:49;94405.41;;;2.87;78.00
20612;BME280;10465;42.686;23.364;2023-01-28T02:18:16;94410.41;;;2.84;78.56
20612;BME280;10465;42.686;23.364;2023-01-28T02:23:34;94416.13;;;2.91;79.08
20612;BME280;10465;42.686;23.364;2023-01-28T02:29:18;94389.56;;;2.68;78.76
20612;BME280;10465;42.686;23.364;2023-01-28T02:31:53;94414.06;;;2.83;78.80
20612;BME280;10465;42.686;23.364;2023-01-28T02:37:03;94386.69;;;2.65;78.01
20612;BME280;10465;42.686;23.364;2023-01-28T02:39:39;94410.47;;;2.68;78.42
20612;BME280;10465;42.686;23.364;2023-01-28T02:42:10;94417.75;;;2.77;78.51
20612;BME280;10465;42.686;23.364;2023-01-28T02:44:38;94403.66;;;2.62;78.86
20612;BME280;10465;42.686;23.364;2023-01-28T02:47:09;94401.56;;;2.69;78.87
20612;BME280;10465;42.686;23.364;2023-01-28T02:49:55;94362.44;;;2.44;78.04
20612;BME280;10465;42.686;23.364;2023-01-28T02:52:33;94412.28;;;2.73;78.37
20612;BME280;10465;42.686;23.364;2023-01-28T02:55:35;94417.50;;;2.73;78.10
20612;BME280;10465;42.686;23.364;2023-01-28T03:03:50;94418.56;;;2.72;78.46
20612;BME280;10465;42.686;23.364;2023-01-28T03:06:25;94416.47;;;2.69;77.67
20612;BME280;10465;42.686;23.364;2023-01-28T03:08:56;94422.22;;;2.66;77.42
20612;BME280;10465;42.686;23.364;2023-01-28T03:11:45;94414.63;;;2.69;77.88
20612;BME280;10465;42.686;23.364;2023-01-28T03:14:32;94422.75;;;2.68;78.45
20612;BME280;10465;42.686;23.364;2023-01-28T03:20:43;94423.00;;;2.61;77.66
20612;BME280;10465;42.686;23.364;2023-01-28T03:23:38;94397.69;;;2.46;77.18
20612;BME280;10465;42.686;23.364;2023-01-28T03:26:26;94426.69;;;2.60;77.31
20612;BME280;10465;42.686;23.364;2023-01-28T03:29:12;94423.81;;;2.57;77.99
20612;BME280;10465;42.686;23.364;2023-01-28T03:31:58;94428.25;;;2.56;77.98
20612;BME280;10465;42.686;23.364;2023-01-28T03:34:44;94375.56;;;2.23;77.91
20612;BME280;10465;42.686;23.364;2023-01-28T03:37:29;94418.34;;;2.48;77.16
20612;BME280;10465;42.686;23.364;2023-01-28T03:40:01;94430.09;;;2.56;77.74
20612;BME280;10465;42.686;23.364;2023-01-28T03:42:26;94433.22;;;2.58;77.20
20612;BME280;10465;42.686;23.364;2023-01-28T03:44:52;94360.97;;;2.07;77.43
20612;BME280;10465;42.686;23.364;2023-01-28T03:47:19;94406.09;;;2.43;77.90
20612;BME280;10465;42.686;23.364;2023-01-28T03:49:47;94422.50;;;2.54;77.52
20612;BME280;10465;42.686;23.364;2023-01-28T03:52:17;94414.97;;;2.47;77.87
20612;BME280;10465;42.686;23.364;2023-01-28T03:54:47;94440.25;;;2.67;78.11
20612;BME280;10465;42.686;23.364;2023-01-28T03:57:16;94438.69;;;2.61;77.69
20612;BME280;10465;42.686;23.364;2023-01-28T03:59:43;94422.00;;;2.52;77.63
20612;BME280;10465;42.686;23.364;2023-01-28T04:02:09;94420.94;;;2.43;77.62
20612;BME280;10465;42.686;23.364;2023-01-28T04:04:39;94418.88;;;2.40;77.90
20612;BME280;10465;42.686;23.364;2023-01-28T04:07:07;94424.59;;;2.47;77.48
20612;BME280;10465;42.686;23.364;2023-01-28T04:09:35;94426.19;;;2.43;77.79
20612;BME280;10465;42.686;23.364;2023-01-28T04:12:02;94414.69;;;2.39;77.59
20612;BME280;10465;42.686;23.364;2023-01-28T04:14:28;94443.16;;;2.56;77.49
20612;BME280;10465;42.686;23.364;2023-01-28T04:16:54;94457.53;;;2.53;77.60
20612;BME280;10465;42.686;23.364;2023-01-28T04:19:20;94427.78;;;2.29;77.75
20612;BME280;10465;42.686;23.364;2023-01-28T04:21:45;94459.59;;;2.51;77.88
20612;BME280;10465;42.686;23.364;2023-01-28T04:24:12;94468.00;;;2.48;77.87
20612;BME280;10465;42.686;23.364;2023-01-28T04:26:37;94417.59;;;2.17;78.09
20612;BME280;10465;42.686;23.364;2023-01-28T04:29:03;94453.88;;;2.39;78.21
20612;BME280;10465;42.686;23.364;2023-01-28T04:31:28;94433.25;;;2.32;78.08
20612;BME280;10465;42.686;23.364;2023-01-28T04:33:54;94442.91;;;2.42;78.27
20612;BME280;10465;42.686;23.364;2023-01-28T04:36:20;94468.75;;;2.54;78.33
20612;BME280;10465;42.686;23.364;2023-01-28T04:38:45;94475.28;;;2.56;78.22
20612;BME280;10465;42.686;23.364;2023-01-28T04:41:11;94401.16;;;2.01;78.09
20612;BME280;10465;42.686;23.364;2023-01-28T04:43:36;94482.59;;;2.49;78.34
20612;BME280;10465;42.686;23.364;2023-01-28T04:46:02;94454.16;;;2.32;77.88
20612;BME280;10465;42.686;23.364;2023-01-28T04:48:27;94493.31;;;2.53;78.13
20612;BME280;10465;42.686;23.364;2023-01-28T04:50:55;94485.50;;;2.47;77.94
20612;BME280;10465;42.686;23.364;2023-01-28T04:53:20;94459.38;;;2.32;77.90
20612;BME280;10465;42.686;23.364;2023-01-28T04:55:45;94465.38;;;2.38;78.46
20612;BME280;10465;42.686;23.364;2023-01-28T04:58:11;94459.13;;;2.29;78.75
20612;BME280;10465;42.686;23.364;2023-01-28T05:00:36;94496.97;;;2.46;78.58
20612;BME280;10465;42.686;23.364;2023-01-28T05:03:02;94482.88;;;2.32;78.66
20612;BME280;10465;42.686;23.364;2023-01-28T05:05:28;94464.31;;;2.18;79.22
20612;BME280;10465;42.686;23.364;2023-01-28T05:07:54;94468.28;;;2.11;79.36
20612;BME280;10465;42.686;23.364;2023-01-28T05:10:21;94500.13;;;2.33;79.64
20612;BME280;10465;42.686;23.364;2023-01-28T05:12:47;94463.81;;;2.16;79.31
20612;BME280;10465;42.686;23.364;2023-01-28T05:15:14;94488.13;;;2.27;79.39
20612;BME280;10465;42.686;23.364;2023-01-28T05:17:40;94509.50;;;2.34;79.63
20612;BME280;10465;42.686;23.364;2023-01-28T05:20:08;94481.06;;;2.28;79.22
20612;BME280;10465;42.686;23.364;2023-01-28T05:22:33;94499.06;;;2.29;78.94
20612;BME280;10465;42.686;23.364;2023-01-28T05:24:59;94480.00;;;2.13;78.95
20612;BME280;10465;42.686;23.364;2023-01-28T05:27:25;94482.88;;;2.17;78.70
20612;BME280;10465;42.686;23.364;2023-01-28T05:29:51;94492.53;;;2.21;78.25
20612;BME280;10465;42.686;23.364;2023-01-28T05:32:16;94482.88;;;2.22;78.48
20612;BME280;10465;42.686;23.364;2023-01-28T05:34:41;94499.59;;;2.26;78.84
20612;BME280;10465;42.686;23.364;2023-01-28T05:37:07;94525.72;;;2.41;78.63
20612;BME280;10465;42.686;23.364;2023-01-28T05:39:32;94505.88;;;2.25;78.35
20612;BME280;10465;42.686;23.364;2023-01-28T05:41:58;94506.13;;;2.29;78.43
20612;BME280;10465;42.686;23.364;2023-01-28T05:44:23;94522.31;;;2.41;77.88
20612;BME280;10465;42.686;23.364;2023-01-28T05:46:49;94506.91;;;2.24;78.30
20612;BME280;10465;42.686;23.364;2023-01-28T05:49:14;94518.91;;;2.30;78.47
20612;BME280;10465;42.686;23.364;2023-01-28T05:51:41;94516.84;;;2.32;78.30
20612;BME280;10465;42.686;23.364;2023-01-28T05:54:07;94535.91;;;2.38;77.47
20612;BME280;10465;42.686;23.364;2023-01-28T05:56:33;94521.78;;;2.34;78.45
20612;BME280;10465;42.686;23.364;2023-01-28T05:59:01;94536.94;;;2.42;78.12
20612;BME280;10465;42.686;23.364;2023-01-28T06:01:28;94530.16;;;2.41;78.03
20612;BME280;10465;42.686;23.364;2023-01-28T06:03:53;94544.00;;;2.36;78.14
20612;BME280;10465;42.686;23.364;2023-01-28T06:06:19;94529.63;;;2.29;77.94
20612;BME280;10465;42.686;23.364;2023-01-28T06:08:45;94548.94;;;2.43;77.99
20612;BME280;10465;42.686;23.364;2023-01-28T06:11:10;94552.63;;;2.37;77.92
20612;BME280;10465;42.686;23.364;2023-01-28T06:13:36;94562.28;;;2.41;77.82
20612;BME280;10465;42.686;23.364;2023-01-28T06:16:02;94542.97;;;2.32;77.63
20612;BME280;10465;42.686;23.364;2023-01-28T06:18:28;94565.16;;;2.45;77.53
20612;BME280;10465;42.686;23.364;2023-01-28T06:20:54;94570.13;;;2.46;77.92
20612;BME280;10465;42.686;23.364;2023-01-28T06:23:19;94564.91;;;2.46;77.99
20612;BME280;10465;42.686;23.364;2023-01-28T06:25:44;94575.34;;;2.46;77.83
20612;BME280;10465;42.686;23.364;2023-01-28T06:28:10;94564.38;;;2.39;77.88
20612;BME280;10465;42.686;23.364;2023-01-28T06:30:35;94519.16;;;2.03;77.48
20612;BME280;10465;42.686;23.364;2023-01-28T06:33:01;94579.28;;;2.44;77.22
20612;BME280;10465;42.686;23.364;2023-01-28T06:35:26;94594.94;;;2.49;77.23
20612;BME280;10465;42.686;23.364;2023-01-28T06:37:52;94552.34;;;2.23;77.64
20612;BME280;10465;42.686;23.364;2023-01-28T06:40:17;94588.41;;;2.41;77.61
20612;BME280;10465;42.686;23.364;2023-01-28T06:42:43;94566.19;;;2.39;77.36
20612;BME280;10465;42.686;23.364;2023-01-28T06:45:09;94580.84;;;2.45;77.04
20612;BME280;10465;42.686;23.364;2023-01-28T06:47:37;94565.69;;;2.32;77.04
20612;BME280;10465;42.686;23.364;2023-01-28T06:50:03;94608.00;;;2.54;77.04
20612;BME280;10465;42.686;23.364;2023-01-28T06:52:29;94587.34;;;2.42;77.01
20612;BME280;10465;42.686;23.364;2023-01-28T06:54:54;94622.41;;;2.57;76.52
20612;BME280;10465;42.686;23.364;2023-01-28T06:57:19;94599.41;;;2.48;76.40
20612;BME280;10465;42.686;23.364;2023-01-28T06:59:45;94579.53;;;2.32;76.16
20612;BME280;10465;42.686;23.364;2023-01-28T07:02:10;94614.28;;;2.53;76.73
20612;BME280;10465;42.686;23.364;2023-01-28T07:04:36;94612.44;;;2.59;76.88
20612;BME280;10465;42.686;23.364;2023-01-28T07:07:02;94624.50;;;2.60;76.88
20612;BME280;10465;42.686;23.364;2023-01-28T07:09:27;94621.06;;;2.59;76.94
20612;BME280;10465;42.686;23.364;2023-01-28T07:11:53;94630.78;;;2.64;76.80
20612;BME280;10465;42.686;23.364;2023-01-28T07:14:18;94637.03;;;2.53;76.35
20612;BME280;10465;42.686;23.364;2023-01-28T07:16:44;94632.31;;;2.50;76.94
20612;BME280;10465;42.686;23.364;2023-01-28T07:19:09;94635.47;;;2.52;76.74
20612;BME280;10465;42.686;23.364;2023-01-28T07:21:35;94654.00;;;2.55;76.57
20612;BME280;10465;42.686;23.364;2023-01-28T07:24:00;94646.41;;;2.48;76.95
20612;BME280;10465;42.686;23.364;2023-01-28T07:26:25;94653.75;;;2.62;77.25
20612;BME280;10465;42.686;23.364;2023-01-28T07:28:51;94662.09;;;2.59;76.56
20612;BME280;10465;42.686;23.364;2023-01-28T07:31:16;94636.47;;;2.35;76.48
20612;BME280;10465;42.686;23.364;2023-01-28T07:33:42;94645.91;;;2.52;76.55
20612;BME280;10465;42.686;23.364;2023-01-28T07:36:07;94659.22;;;2.55;76.63
20612;BME280;10465;42.686;23.364;2023-01-28T07:38:33;94601.94;;;2.13;76.42
20612;BME280;10465;42.686;23.364;2023-01-28T07:40:58;94657.16;;;2.52;76.63
20612;BME280;10465;42.686;23.364;2023-01-28T07:43:24;94660.56;;;2.78;78.73
20612;BME280;10465;42.686;23.364;2023-01-28T07:45:49;94669.47;;;3.03;78.22
20612;BME280;10465;42.686;23.364;2023-01-28T07:48:14;94622.94;;;2.84;77.40
20612;BME280;10465;42.686;23.364;2023-01-28T07:50:40;94667.63;;;3.29;76.67
20612;BME280;10465;42.686;23.364;2023-01-28T07:53:08;94673.66;;;3.14;74.70
20612;BME280;10465;42.686;23.364;2023-01-28T07:55:35;94674.97;;;3.01;74.83
20612;BME280;10465;42.686;23.364;2023-01-28T07:58:02;94640.19;;;2.80;74.78
20612;BME280;10465;42.686;23.364;2023-01-28T08:00:29;94679.16;;;3.02;74.60
20612;BME280;10465;42.686;23.364;2023-01-28T08:02:56;94683.59;;;3.02;74.65
20612;BME280;10465;42.686;23.364;2023-01-28T08:05:23;94666.56;;;2.79;74.61
20612;BME280;10465;42.686;23.364;2023-01-28T08:07:49;94688.81;;;2.91;75.01
20612;BME280;10465;42.686;23.364;2023-01-28T08:10:16;94690.38;;;2.82;74.89
20612;BME280;10465;42.686;23.364;2023-01-28T08:12:55;94628.38;;;2.42;75.23
20612;BME280;10465;42.686;23.364;2023-01-28T08:15:22;94688.28;;;2.79;75.46
20612;BME280;10465;42.686;23.364;2023-01-28T08:17:47;94688.28;;;2.79;75.89
20612;BME280;10465;42.686;23.364;2023-01-28T08:20:13;94683.03;;;2.74;76.06
20612;BME280;10465;42.686;23.364;2023-01-28T08:22:39;94693.50;;;2.79;75.76
20612;BME280;10465;42.686;23.364;2023-01-28T08:25:04;94613.22;;;2.23;75.62
20612;BME280;10465;42.686;23.364;2023-01-28T08:27:30;94674.94;;;2.70;74.71
20612;BME280;10465;42.686;23.364;2023-01-28T08:29:56;94690.13;;;2.84;76.77
20612;BME280;10465;42.686;23.364;2023-01-28T08:32:21;94699.00;;;2.98;75.64
20612;BME280;10465;42.686;23.364;2023-01-28T08:34:46;94676.00;;;2.90;74.80
20612;BME280;10465;42.686;23.364;2023-01-28T08:37:12;94696.94;;;3.00;74.89
20612;BME280;10465;42.686;23.364;2023-01-28T08:39:37;94698.22;;;3.08;74.46
20612;BME280;10465;42.686;23.364;2023-01-28T08:42:04;94688.81;;;3.07;74.60
20612;BME280;10465;42.686;23.364;2023-01-28T08:44:30;94599.38;;;2.59;74.43
20612;BME280;10465;42.686;23.364;2023-01-28T08:46:56;94689.34;;;3.19;74.13
20612;BME280;10465;42.686;23.364;2023-01-28T08:49:21;94641.22;;;2.94;73.28
20612;BME280;10465;42.686;23.364;2023-01-28T08:51:47;94693.25;;;3.27;72.87
20612;BME280;10465;42.686;23.364;2023-01-28T08:54:13;94702.94;;;3.46;72.50
20612;BME280;10465;42.686;23.364;2023-01-28T08:56:38;94683.06;;;3.40;73.12
20612;BME280;10465;42.686;23.364;2023-01-28T08:59:07;94700.31;;;3.46;72.51
20612;BME280;10465;42.686;23.364;2023-01-28T09:01:32;94701.91;;;3.37;72.91
20612;BME280;10465;42.686;23.364;2023-01-28T09:03:58;94687.25;;;3.11;72.89
20612;BME280;10465;42.686;23.364;2023-01-28T09:06:23;94673.38;;;3.10;73.07
20612;BME280;10465;42.686;23.364;2023-01-28T09:08:49;94706.34;;;3.21;73.19
20612;BME280;10465;42.686;23.364;2023-01-28T09:11:14;94694.06;;;3.17;72.76
20612;BME280;10465;42.686;23.364;2023-01-28T09:13:40;94696.94;;;3.26;72.52
20612;BME280;10465;42.686;23.364;2023-01-28T09:16:06;94693.50;;;3.35;74.51
20612;BME280;10465;42.686;23.364;2023-01-28T09:18:32;94705.53;;;3.52;72.57
20612;BME280;10465;42.686;23.364;2023-01-28T09:20:57;94687.25;;;3.31;72.30
20612;BME280;10465;42.686;23.364;2023-01-28T09:23:22;94715.75;;;3.43;72.47
20612;BME280;10465;42.686;23.364;2023-01-28T09:25:48;94671.28;;;3.22;72.48
20612;BME280;10465;42.686;23.364;2023-01-28T09:28:14;94713.41;;;3.57;73.18
20612;BME280;10465;42.686;23.364;2023-01-28T09:30:39;94714.44;;;3.56;72.25
20612;BME280;10465;42.686;23.364;2023-01-28T09:33:06;94714.19;;;3.42;72.44
20612;BME280;10465;42.686;23.364;2023-01-28T09:35:32;94715.50;;;3.39;72.55
20612;BME280;10465;42.686;23.364;2023-01-28T09:37:57;94712.88;;;3.44;72.96
20612;BME280;10465;42.686;23.364;2023-01-28T09:40:35;94719.16;;;3.49;72.78
20612;BME280;10465;42.686;23.364;2023-01-28T09:48:21;94696.41;;;3.08;74.53
20612;BME280;10465;42.686;23.364;2023-01-28T09:50:52;94674.16;;;2.70;74.84
20612;BME280;10465;42.686;23.364;2023-01-28T09:55:49;94686.19;;;2.86;74.75
20612;BME280;10465;42.686;23.364;2023-01-28T09:58:17;94699.53;;;2.90;75.19
20612;BME280;10465;42.686;23.364;2023-01-28T10:00:59;94713.13;;;3.07;75.41
20612;BME280;10465;42.686;23.364;2023-01-28T10:17:26;94688.50;;;3.59;74.64
20612;BME280;10465;42.686;23.364;2023-01-28T10:19:54;94709.44;;;3.75;73.96
20612;BME280;10465;42.686;23.364;2023-01-28T10:22:24;94707.09;;;3.73;74.75
20612;BME280;10465;42.686;23.364;2023-01-28T10:24:56;94706.31;;;3.62;73.86
20612;BME280;10465;42.686;23.364;2023-01-28T10:27:28;94694.03;;;3.58;74.33
20612;BME280;10465;42.686;23.364;2023-01-28T10:29:57;94701.59;;;3.59;74.65
20612;BME280;10465;42.686;23.364;2023-01-28T10:32:35;94702.91;;;3.62;75.56
20612;BME280;10465;42.686;23.364;2023-01-28T10:35:03;94694.28;;;3.61;75.42
20612;BME280;10465;42.686;23.364;2023-01-28T10:37:33;94711.53;;;3.78;74.85
20612;BME280;10465;42.686;23.364;2023-01-28T10:39:59;94698.75;;;3.51;74.54
20612;BME280;10465;42.686;23.364;2023-01-28T10:44:59;94700.81;;;3.59;73.76
20612;BME280;10465;42.686;23.364;2023-01-28T10:47:34;94687.50;;;3.45;73.78
20612;BME280;10465;42.686;23.364;2023-01-28T10:50:04;94705.78;;;3.60;74.08
20612;BME280;10465;42.686;23.364;2023-01-28T10:52:29;94702.38;;;3.70;73.99
20612;BME280;10465;42.686;23.364;2023-01-28T10:54:59;94701.56;;;3.75;73.48
20612;BME280;10465;42.686;23.364;2023-01-28T10:57:25;94691.38;;;3.68;73.38
20612;BME280;10465;42.686;23.364;2023-01-28T10:59:51;94694.22;;;3.77;73.59
20612;BME280;10465;42.686;23.364;2023-01-28T11:02:31;94693.75;;;3.69;73.73
20612;BME280;10465;42.686;23.364;2023-01-28T11:05:22;94681.97;;;3.67;73.52
20612;BME280;10465;42.686;23.364;2023-01-28T11:07:50;94691.38;;;3.73;73.05
20612;BME280;10465;42.686;23.364;2023-01-28T11:10:26;94679.34;;;3.67;72.68
20612;BME280;10465;42.686;23.364;2023-01-28T11:12:59;94647.16;;;3.56;73.00
20612;BME280;10465;42.686;23.364;2023-01-28T11:15:25;94693.16;;;3.93;73.34
20612;BME280;10465;42.686;23.364;2023-01-28T11:18:00;94690.25;;;3.94;72.53
20612;BME280;10465;42.686;23.364;2023-01-28T11:20:30;94687.66;;;3.94;72.24
20612;BME280;10465;42.686;23.364;2023-01-28T11:22:59;94682.44;;;3.89;72.16
20612;BME280;10465;42.686;23.364;2023-01-28T11:25:33;94678.25;;;3.83;72.07
20612;BME280;10465;42.686;23.364;2023-01-28T11:28:07;94675.63;;;3.83;71.85
20612;BME280;10465;42.686;23.364;2023-01-28T11:30:40;94668.06;;;3.82;71.57
20612;BME280;10465;42.686;23.364;2023-01-28T11:33:20;94692.59;;;4.06;71.36
20612;BME280;10465;42.686;23.364;2023-01-28T11:35:57;94692.63;;;4.01;71.09
20612;BME280;10465;42.686;23.364;2023-01-28T11:38:28;94687.94;;;3.93;71.26
20612;BME280;10465;42.686;23.364;2023-01-28T11:40:55;94697.03;;;4.01;71.17
20612;BME280;10465;42.686;23.364;2023-01-28T11:43:29;94657.28;;;3.88;71.35
20612;BME280;10465;42.686;23.364;2023-01-28T11:46:06;94688.38;;;4.10;70.82
20612;BME280;10465;42.686;23.364;2023-01-28T12:07:16;94695.63;;;4.34;71.19
20612;BME280;10465;42.686;23.364;2023-01-28T12:10:00;94688.56;;;4.29;70.60
20612;BME280;10465;42.686;23.364;2023-01-28T12:13:12;94686.19;;;4.33;69.54
20612;BME280;10465;42.686;23.364;2023-01-28T12:23:53;94692.47;;;4.32;69.98
20612;BME280;10465;42.686;23.364;2023-01-28T12:42:34;94699.81;;;4.35;69.78
20612;BME280;10465;42.686;23.364;2023-01-28T12:45:18;94680.22;;;4.17;69.51
20612;BME280;10465;42.686;23.364;2023-01-28T12:47:52;94636.84;;;3.90;69.04
20612;BME280;10465;42.686;23.364;2023-01-28T12:50:24;94697.44;;;4.38;69.21
20612;BME280;10465;42.686;23.364;2023-01-28T12:52:58;94701.34;;;4.41;69.74
20612;BME280;10465;42.686;23.364;2023-01-28T12:55:45;94649.13;;;4.00;69.11
20612;BME280;10465;42.686;23.364;2023-01-28T12:58:18;94711.03;;;4.40;69.02
20612;BME280;10465;42.686;23.364;2023-01-28T13:00:49;94690.44;;;4.18;69.81
20612;BME280;10465;42.686;23.364;2023-01-28T13:06:07;94717.94;;;4.21;69.42
20612;BME280;10465;42.686;23.364;2023-01-28T13:08:35;94715.53;;;4.35;68.98
20612;BME280;10465;42.686;23.364;2023-01-28T13:11:02;94715.50;;;4.40;69.08
20612;BME280;10465;42.686;23.364;2023-01-28T13:13:39;94694.59;;;4.30;69.76
20612;BME280;10465;42.686;23.364;2023-01-28T13:16:09;94725.78;;;4.26;69.84
20612;BME280;10465;42.686;23.364;2023-01-28T13:21:50;94733.44;;;4.17;69.46
20612;BME280;10465;42.686;23.364;2023-01-28T13:26:50;94737.88;;;4.12;69.95
20612;BME280;10465;42.686;23.364;2023-01-28T13:31:48;94736.03;;;4.12;69.48
20612;BME280;10465;42.686;23.364;2023-01-28T13:42:36;94744.72;;;3.92;69.79
20612;BME280;10465;42.686;23.364;2023-01-28T13:47:44;94746.28;;;4.04;69.94
20612;BME280;10465;42.686;23.364;2023-01-28T13:50:14;94722.81;;;3.63;70.46
20612;BME280;10465;42.686;23.364;2023-01-28T13:52:49;94752.34;;;3.94;70.07
20612;BME280;10465;42.686;23.364;2023-01-28T13:55:21;94762.03;;;3.83;70.02
20612;BME280;10465;42.686;23.364;2023-01-28T14:04:28;94746.88;;;3.65;70.58
20612;BME280;10465;42.686;23.364;2023-01-28T14:10:11;94773.81;;;3.91;70.29
20612;BME280;10465;42.686;23.364;2023-01-28T14:18:36;94784.53;;;3.84;70.58
20612;BME280;10465;42.686;23.364;2023-01-28T14:21:11;94790.31;;;3.76;70.69
20612;BME280;10465;42.686;23.364;2023-01-28T14:23:43;94765.97;;;3.60;71.10
20612;BME280;10465;42.686;23.364;2023-01-28T14:31:26;94787.19;;;3.64;70.56
20612;BME280;10465;42.686;23.364;2023-01-28T14:33:52;94811.53;;;3.64;70.46
20612;BME280;10465;42.686;23.364;2023-01-28T14:36:18;94785.63;;;3.42;71.05
20612;BME280;10465;42.686;23.364;2023-01-28T14:38:44;94779.34;;;3.33;71.74
20612;BME280;10465;42.686;23.364;2023-01-28T14:41:22;94779.09;;;3.25;71.61
20612;BME280;10465;42.686;23.364;2023-01-28T14:43:49;94787.47;;;3.37;71.52
20612;BME280;10465;42.686;23.364;2023-01-28T14:46:26;94798.72;;;3.37;71.92
20612;BME280;10465;42.686;23.364;2023-01-28T14:49:19;94806.28;;;3.29;72.19
20612;BME280;10465;42.686;23.364;2023-01-28T14:52:10;94776.72;;;3.13;72.48
20612;BME280;10465;42.686;23.364;2023-01-28T14:57:46;94819.88;;;3.26;71.86
20612;BME280;10465;42.686;23.364;2023-01-28T15:00:22;94817.28;;;3.20;72.23
20612;BME280;10465;42.686;23.364;2023-01-28T15:02:48;94810.94;;;3.11;72.02
20612;BME280;10465;42.686;23.364;2023-01-28T15:05:26;94800.44;;;2.91;72.52
20612;BME280;10465;42.686;23.364;2023-01-28T15:07:53;94813.84;;;3.10;72.63
20612;BME280;10465;42.686;23.364;2023-01-28T15:10:24;94815.41;;;3.06;72.60
20612;BME280;10465;42.686;23.364;2023-01-28T15:13:12;94754.16;;;2.76;72.70
20612;BME280;10465;42.686;23.364;2023-01-28T15:15:40;94819.28;;;2.98;72.65
20612;BME280;10465;42.686;23.364;2023-01-28T15:20:45;94790.22;;;2.79;72.71
20612;BME280;10465;42.686;23.364;2023-01-28T15:23:14;94836.28;;;2.95;74.43